createdAt,value
2023-02-03T00:01:05.603Z,10.08
2023-02-03T00:03:34.572Z,10.59
2023-02-03T00:06:02.250Z,9.99
2023-02-03T00:08:29.856Z,10.02
2023-02-03T00:10:57.495Z,10.40
2023-02-03T00:13:26.589Z,10.14
2023-02-03T00:15:54.231Z,9.66
2023-02-03T00:18:21.885Z,10.39
2023-02-03T00:20:50.864Z,9.48
2023-02-03T00:23:18.535Z,8.61
2023-02-03T00:25:46.159Z,9.00
2023-02-03T00:28:13.825Z,9.66
2023-02-03T00:30:41.638Z,9.80
2023-02-03T00:33:09.307Z,9.01
2023-02-03T00:35:38.737Z,9.55
2023-02-03T00:38:07.758Z,9.68
2023-02-03T00:40:35.519Z,9.79
2023-02-03T00:43:03.223Z,10.20
2023-02-03T00:45:30.915Z,8.89
2023-02-03T00:47:58.610Z,9.14
2023-02-03T00:50:26.617Z,9.65
2023-02-03T00:52:54.550Z,8.63
2023-02-03T00:55:23.602Z,9.49
2023-02-03T00:57:51.181Z,9.37
2023-02-03T01:00:19.478Z,9.66
2023-02-03T01:02:47.656Z,9.36
2023-02-03T01:05:15.303Z,8.84
2023-02-03T01:07:43.036Z,9.91
2023-02-03T01:10:11.228Z,9.85
2023-02-03T01:12:40.275Z,9.13
2023-02-03T01:15:08.312Z,10.04
2023-02-03T01:17:35.914Z,9.98
2023-02-03T01:20:03.586Z,10.13
2023-02-03T01:22:31.339Z,9.08
2023-02-03T01:24:58.972Z,9.86
2023-02-03T01:27:26.592Z,10.10
2023-02-03T01:29:58.490Z,9.38
2023-02-03T01:32:26.786Z,9.49
2023-02-03T01:34:54.432Z,9.97
2023-02-03T01:37:22.326Z,9.14
2023-02-03T01:39:49.948Z,9.46
2023-02-03T01:42:17.613Z,9.61
2023-02-03T01:44:45.933Z,9.78
2023-02-03T01:47:22.713Z,9.67
2023-02-03T01:49:51.054Z,10.01
2023-02-03T01:52:19.724Z,9.55
2023-02-03T01:54:47.602Z,9.56
2023-02-03T01:57:17.064Z,9.92
2023-02-03T01:59:44.945Z,9.33
2023-02-03T02:02:12.624Z,9.94
2023-02-03T02:04:44.549Z,10.29
2023-02-03T02:07:12.237Z,8.45
2023-02-03T02:09:42.032Z,8.71
2023-02-03T02:12:10.413Z,9.23
2023-02-03T02:14:38.080Z,9.57
2023-02-03T02:17:07.252Z,9.30
2023-02-03T02:19:50.004Z,10.93
2023-02-03T02:22:18.753Z,9.49
2023-02-03T02:25:00.837Z,10.29
2023-02-03T02:27:46.353Z,9.70
2023-02-03T02:30:28.539Z,9.03
2023-02-03T02:33:04.013Z,8.78
2023-02-03T02:35:35.001Z,9.84
2023-02-03T02:38:03.752Z,8.99
2023-02-03T02:40:33.948Z,9.43
2023-02-03T02:43:04.433Z,9.26
2023-02-03T02:45:32.562Z,8.97
2023-02-03T02:48:01.231Z,9.83
2023-02-03T02:50:31.294Z,9.52
2023-02-03T02:52:59.185Z,8.49
2023-02-03T02:55:28.205Z,8.35
2023-02-03T02:58:06.577Z,8.51
2023-02-03T03:00:35.418Z,9.55
2023-02-03T03:03:08.362Z,8.90
2023-02-03T03:05:37.402Z,9.15
2023-02-03T03:08:05.313Z,8.25
2023-02-03T03:10:35.343Z,9.63
2023-02-03T03:13:03.462Z,9.37
2023-02-03T03:15:32.028Z,8.41
2023-02-03T03:18:00.626Z,9.08
2023-02-03T03:20:28.649Z,9.18
2023-02-03T03:22:58.347Z,8.02
2023-02-03T03:25:26.366Z,9.51
2023-02-03T03:27:55.587Z,9.00
2023-02-03T03:30:23.839Z,9.25
2023-02-03T03:32:51.487Z,9.60
2023-02-03T03:35:19.362Z,9.02
2023-02-03T03:37:47.448Z,8.51
2023-02-03T03:40:18.470Z,9.15
2023-02-03T03:42:47.226Z,9.60
2023-02-03T03:45:15.576Z,10.01
2023-02-03T03:47:43.717Z,10.05
2023-02-03T03:50:12.695Z,9.51
2023-02-03T03:52:40.374Z,9.01
2023-02-03T03:55:09.598Z,9.92
2023-02-03T03:57:40.069Z,9.07
2023-02-03T04:00:09.598Z,9.36
2023-02-03T04:02:40.644Z,10.12
2023-02-03T04:05:08.823Z,10.22
2023-02-03T04:07:39.866Z,9.47
2023-02-03T04:10:08.149Z,9.58
2023-02-03T04:12:35.743Z,9.66
2023-02-03T04:15:04.862Z,10.39
2023-02-03T04:17:34.086Z,10.58
2023-02-03T04:20:01.721Z,9.53
2023-02-03T04:22:29.328Z,9.44
2023-02-03T04:24:58.864Z,10.43
2023-02-03T04:27:26.544Z,10.18
2023-02-03T04:29:54.188Z,9.33
2023-02-03T04:32:23.188Z,9.39
2023-02-03T04:34:50.774Z,10.43
2023-02-03T04:37:18.416Z,10.18
2023-02-03T04:39:46.034Z,9.98
2023-02-03T04:42:13.641Z,10.28
2023-02-03T04:44:41.237Z,10.20
2023-02-03T04:47:08.861Z,9.66
2023-02-03T04:49:37.834Z,9.66
2023-02-03T04:52:05.559Z,10.01
2023-02-03T04:54:36.047Z,10.38
2023-02-03T04:57:03.685Z,10.98
2023-02-03T04:59:31.304Z,10.62
2023-02-03T05:01:58.975Z,10.49
2023-02-03T05:04:26.570Z,11.14
2023-02-03T05:06:56.221Z,10.83
2023-02-03T05:09:23.909Z,11.51
2023-02-03T05:11:51.583Z,11.15
2023-02-03T05:14:19.224Z,11.85
2023-02-03T05:16:46.936Z,11.11
2023-02-03T05:19:14.598Z,10.83
2023-02-03T05:21:42.212Z,10.82
2023-02-03T05:24:11.435Z,11.94
2023-02-03T05:26:39.044Z,11.70
2023-02-03T05:29:06.626Z,11.82
2023-02-03T05:31:34.772Z,12.22
2023-02-03T05:34:02.533Z,11.53
2023-02-03T05:36:33.255Z,12.15
2023-02-03T05:39:00.895Z,11.79
2023-02-03T05:41:47.302Z,12.82
2023-02-03T05:44:14.911Z,12.75
2023-02-03T05:46:42.508Z,13.40
2023-02-03T05:49:10.158Z,12.79
2023-02-03T05:51:37.758Z,12.83
2023-02-03T05:54:05.462Z,12.56
2023-02-03T05:56:34.434Z,12.51
2023-02-03T05:59:02.025Z,12.03
2023-02-03T06:01:29.668Z,11.81
2023-02-03T06:03:57.469Z,11.85
2023-02-03T06:06:25.140Z,12.38
2023-02-03T06:08:56.328Z,12.53
2023-02-03T06:11:25.230Z,12.47
2023-02-03T06:13:54.228Z,12.18
2023-02-03T06:16:22.093Z,13.28
2023-02-03T06:18:49.763Z,12.89
2023-02-03T06:21:17.380Z,12.59
2023-02-03T06:23:45.076Z,13.55
2023-02-03T06:26:12.747Z,12.92
2023-02-03T06:28:40.400Z,12.70
2023-02-03T06:31:09.473Z,13.17
2023-02-03T06:33:37.150Z,12.55
2023-02-03T06:36:04.985Z,13.00
2023-02-03T06:38:32.632Z,12.27
2023-02-03T06:41:00.264Z,13.04
2023-02-03T06:43:27.901Z,12.80
2023-02-03T06:45:55.560Z,12.35
2023-02-03T06:48:24.643Z,12.90
2023-02-03T06:50:52.316Z,12.81
2023-02-03T06:53:19.908Z,13.16
2023-02-03T06:55:47.935Z,12.24
2023-02-03T06:58:16.154Z,12.13
2023-02-03T07:00:43.810Z,12.24
2023-02-03T07:03:11.413Z,11.83
2023-02-03T07:05:40.771Z,12.13
2023-02-03T07:08:08.445Z,12.65
2023-02-03T07:10:36.052Z,12.10
2023-02-03T07:13:04.648Z,12.42
2023-02-03T07:15:32.297Z,12.14
2023-02-03T07:18:00.013Z,11.81
2023-02-03T07:20:29.109Z,12.16
2023-02-03T07:22:58.910Z,12.71
2023-02-03T07:25:26.569Z,12.08
2023-02-03T07:27:54.256Z,12.02
2023-02-03T07:30:22.051Z,12.71
2023-02-03T07:32:49.682Z,12.38
2023-02-03T07:35:17.399Z,12.09
2023-02-03T07:37:44.992Z,12.21
2023-02-03T07:40:14.494Z,11.82
2023-02-03T07:42:42.908Z,12.13
2023-02-03T07:45:11.287Z,11.23
2023-02-03T07:47:38.913Z,12.64
2023-02-03T07:50:06.758Z,11.74
2023-02-03T07:52:34.329Z,12.19
2023-02-03T07:55:02.020Z,12.78
2023-02-03T07:57:31.043Z,12.89
2023-02-03T07:59:58.691Z,12.09
2023-02-03T08:02:26.319Z,12.31
2023-02-03T08:04:54.059Z,11.96
2023-02-03T08:07:21.733Z,11.68
2023-02-03T08:09:49.335Z,12.85
2023-02-03T08:12:16.994Z,12.35
2023-02-03T08:14:46.016Z,12.56
2023-02-03T08:17:13.632Z,12.34
2023-02-03T08:19:41.237Z,12.04
2023-02-03T08:22:08.901Z,12.83
2023-02-03T08:24:36.559Z,11.87
2023-02-03T08:27:04.291Z,12.43
2023-02-03T08:29:31.899Z,11.86
2023-02-03T08:32:01.071Z,11.12
2023-02-03T08:34:28.803Z,12.47
2023-02-03T08:36:56.444Z,12.44
2023-02-03T08:39:25.355Z,11.18
2023-02-03T08:41:53.008Z,12.32
2023-02-03T08:44:20.761Z,12.63
2023-02-03T08:46:50.254Z,11.59
2023-02-03T08:49:19.304Z,12.42
2023-02-03T08:51:47.185Z,12.30
2023-02-03T08:54:15.003Z,11.94
2023-02-03T08:56:42.636Z,12.45
2023-02-03T08:59:10.338Z,11.72
2023-02-03T09:01:38.128Z,12.84
2023-02-03T09:04:07.322Z,12.41
2023-02-03T09:06:36.673Z,12.51
2023-02-03T09:09:04.391Z,11.95
2023-02-03T09:11:32.042Z,11.70
2023-02-03T09:13:59.696Z,12.30
2023-02-03T09:16:27.403Z,13.25
2023-02-03T09:18:55.114Z,12.24
2023-02-03T09:21:33.837Z,12.14
2023-02-03T09:24:11.887Z,12.08
2023-02-03T09:26:39.524Z,11.64
2023-02-03T09:29:07.221Z,12.05
2023-02-03T09:31:34.968Z,12.08
2023-02-03T09:34:02.651Z,12.18
2023-02-03T09:36:30.319Z,11.94
2023-02-03T09:38:58.093Z,11.75
2023-02-03T09:41:31.079Z,11.70
2023-02-03T09:44:00.581Z,12.37
2023-02-03T09:46:28.761Z,12.57
2023-02-03T09:48:57.494Z,11.94
2023-02-03T09:51:25.801Z,12.55
2023-02-03T09:53:55.001Z,12.09
2023-02-03T09:56:25.107Z,12.36
2023-02-03T09:58:54.106Z,11.31
2023-02-03T10:01:22.260Z,12.67
2023-02-03T10:03:51.699Z,11.81
2023-02-03T10:06:21.645Z,11.24
2023-02-03T10:08:53.499Z,11.45
2023-02-03T10:11:23.942Z,11.93
2023-02-03T10:13:57.255Z,12.21
2023-02-03T10:16:29.189Z,11.50
2023-02-03T10:18:57.107Z,11.55
2023-02-03T10:21:27.639Z,11.76
2023-02-03T10:23:57.427Z,11.69
2023-02-03T10:26:26.542Z,12.07
2023-02-03T10:28:56.386Z,11.56
2023-02-03T10:31:24.843Z,12.50
2023-02-03T10:33:54.373Z,11.40
2023-02-03T10:36:22.675Z,11.34
2023-02-03T10:38:53.293Z,11.07
2023-02-03T10:41:21.013Z,11.80
2023-02-03T10:43:48.743Z,11.29
2023-02-03T10:46:18.105Z,11.90
2023-02-03T10:48:45.844Z,12.06
2023-02-03T10:51:13.788Z,12.18
2023-02-03T10:53:41.496Z,11.42
2023-02-03T10:56:10.165Z,9.88
2023-02-03T10:58:38.644Z,11.73
2023-02-03T11:01:10.997Z,26.43
2023-02-03T11:03:40.339Z,31.73
2023-02-03T11:06:09.610Z,31.85
2023-02-03T11:08:37.901Z,32.43
2023-02-03T11:11:06.243Z,38.16
2023-02-03T11:13:34.284Z,36.27
2023-02-03T11:16:03.641Z,25.15
2023-02-03T11:18:38.354Z,16.98
2023-02-03T11:21:16.743Z,18.71
2023-02-03T11:23:56.880Z,13.24
2023-02-03T11:26:28.497Z,11.38
2023-02-03T11:28:59.058Z,12.46
2023-02-03T11:31:27.124Z,12.01
2023-02-03T11:33:56.274Z,12.45
2023-02-03T11:36:26.255Z,11.48
2023-02-03T11:38:54.087Z,11.88
2023-02-03T11:41:23.952Z,11.35
2023-02-03T11:43:53.339Z,11.56
2023-02-03T11:46:21.131Z,11.10
2023-02-03T11:48:52.431Z,11.85
2023-02-03T11:51:22.613Z,11.27
2023-02-03T11:53:57.482Z,11.52
2023-02-03T11:56:50.543Z,10.59
2023-02-03T11:59:33.145Z,13.07
2023-02-03T12:02:04.381Z,12.09
2023-02-03T12:04:49.731Z,12.57
2023-02-03T12:07:25.148Z,11.86
2023-02-03T12:09:54.799Z,12.21
2023-02-03T12:12:33.664Z,12.35
2023-02-03T12:15:08.660Z,12.67
2023-02-03T12:17:45.132Z,12.61
2023-02-03T12:20:25.625Z,12.13
2023-02-03T12:22:58.575Z,13.62
2023-02-03T12:25:38.257Z,12.81
2023-02-03T12:28:27.224Z,11.77
2023-02-03T12:31:05.006Z,11.70
2023-02-03T12:33:39.225Z,14.20
2023-02-03T12:36:10.525Z,12.27
2023-02-03T12:38:42.483Z,13.45
2023-02-03T12:41:14.267Z,13.85
2023-02-03T12:43:49.112Z,13.90
2023-02-03T12:46:19.618Z,13.73
2023-02-03T12:48:53.270Z,13.31
2023-02-03T12:51:29.701Z,13.39
2023-02-03T12:54:01.218Z,13.36
2023-02-03T12:56:36.701Z,13.77
2023-02-03T12:59:07.470Z,12.92
2023-02-03T13:01:38.025Z,13.34
2023-02-03T13:04:10.921Z,12.12
2023-02-03T13:06:43.930Z,13.17
2023-02-03T13:09:16.130Z,12.15
2023-02-03T13:11:52.338Z,10.29
2023-02-03T13:14:24.041Z,9.87
2023-02-03T13:16:55.704Z,10.57
2023-02-03T13:19:28.151Z,10.54
2023-02-03T13:21:56.011Z,10.36
2023-02-03T13:24:25.973Z,8.98
2023-02-03T13:27:10.632Z,9.58
2023-02-03T13:29:59.357Z,8.41
2023-02-03T13:32:39.311Z,8.78
2023-02-03T13:35:34.160Z,8.77
2023-02-03T13:38:27.067Z,8.79
2023-02-03T13:41:01.425Z,9.56
2023-02-03T13:43:38.541Z,8.87
2023-02-03T13:46:09.330Z,9.51
2023-02-03T13:48:38.899Z,9.59
2023-02-03T13:51:08.763Z,10.62
2023-02-03T13:53:39.071Z,11.74
2023-02-03T13:56:09.250Z,11.39
2023-02-03T13:58:39.551Z,11.66
2023-02-03T14:01:29.535Z,12.44
2023-02-03T14:03:58.057Z,12.17
2023-02-03T14:07:00.538Z,13.11
2023-02-03T14:09:48.038Z,11.32
2023-02-03T14:12:21.344Z,12.36
2023-02-03T14:15:04.599Z,12.49
2023-02-03T14:17:58.406Z,13.06
2023-02-03T14:20:53.211Z,12.85
2023-02-03T14:23:26.638Z,13.45
2023-02-03T14:25:57.263Z,11.02
2023-02-03T14:28:29.197Z,12.61
2023-02-03T14:31:07.913Z,12.76
2023-02-03T14:34:06.859Z,12.82
2023-02-03T14:36:50.528Z,14.12
2023-02-03T14:40:07.398Z,13.11
2023-02-03T14:43:10.226Z,13.81
2023-02-03T14:46:01.211Z,12.69
2023-02-03T14:48:47.665Z,11.70
2023-02-03T14:51:24.614Z,12.69
2023-02-03T14:54:04.214Z,11.72
2023-02-03T14:56:57.393Z,12.48
2023-02-03T14:59:29.044Z,12.63
2023-02-03T15:02:18.999Z,12.86
2023-02-03T15:04:50.326Z,12.49
2023-02-03T15:07:36.616Z,12.21
2023-02-03T15:10:05.782Z,12.49
2023-02-03T15:12:38.749Z,12.89
2023-02-03T15:15:23.508Z,12.52
2023-02-03T15:17:51.829Z,12.07
2023-02-03T15:20:34.525Z,11.57
2023-02-03T15:23:02.983Z,11.18
2023-02-03T15:25:33.011Z,10.79
2023-02-03T15:28:16.347Z,10.03
2023-02-03T15:30:44.419Z,11.49
2023-02-03T15:33:15.709Z,12.77
2023-02-03T15:35:46.646Z,11.54
2023-02-03T15:38:17.081Z,11.44
2023-02-03T15:40:46.686Z,11.60
2023-02-03T15:43:18.266Z,10.98
2023-02-03T15:45:54.966Z,9.79
2023-02-03T15:48:28.630Z,10.05
2023-02-03T15:51:01.443Z,11.37
2023-02-03T15:53:45.310Z,11.85
2023-02-03T15:56:21.804Z,10.15
2023-02-03T15:58:50.372Z,10.66
2023-02-03T16:01:21.993Z,10.38
2023-02-03T16:03:53.544Z,10.91
2023-02-03T16:06:27.416Z,10.11
2023-02-03T16:08:56.206Z,11.47
2023-02-03T16:11:26.689Z,10.67
2023-02-03T16:13:56.437Z,10.24
2023-02-03T16:16:26.731Z,10.46
2023-02-03T16:18:56.723Z,10.59
2023-02-03T16:21:35.883Z,10.43
2023-02-03T16:24:05.590Z,12.11
2023-02-03T16:26:36.567Z,11.22
2023-02-03T16:29:30.801Z,11.27
2023-02-03T16:32:16.567Z,10.59
2023-02-03T16:35:02.366Z,11.03
2023-02-03T16:37:50.800Z,10.50
2023-02-03T16:40:37.946Z,10.99
2023-02-03T16:43:24.257Z,10.90
2023-02-03T16:46:12.742Z,11.73
2023-02-03T16:48:58.506Z,11.05
2023-02-03T16:51:26.658Z,11.48
2023-02-03T16:53:56.042Z,11.35
2023-02-03T16:56:23.933Z,10.47
2023-02-03T16:58:51.842Z,10.73
2023-02-03T17:01:19.847Z,11.47
2023-02-03T17:03:47.888Z,11.49
2023-02-03T17:06:16.004Z,11.22
2023-02-03T17:08:43.938Z,12.20
2023-02-03T17:11:16.526Z,11.13
2023-02-03T17:13:44.802Z,11.88
2023-02-03T17:16:14.543Z,10.57
2023-02-03T17:18:42.455Z,10.12
2023-02-03T17:21:12.254Z,10.19
2023-02-03T17:23:40.596Z,10.00
2023-02-03T17:26:08.593Z,11.04
2023-02-03T17:28:39.945Z,12.09
2023-02-03T17:31:08.538Z,10.01
2023-02-03T17:33:36.487Z,11.19
2023-02-03T17:36:07.361Z,10.33
2023-02-03T17:55:15.156Z,10.35
2023-02-03T17:57:42.754Z,10.62
2023-02-03T18:00:15.219Z,11.49
2023-02-03T18:02:43.621Z,10.34
2023-02-03T18:05:11.380Z,11.91
2023-02-03T18:07:39.023Z,11.04
2023-02-03T18:10:06.952Z,11.06
2023-02-03T18:12:34.594Z,11.02
2023-02-03T18:15:02.220Z,11.12
2023-02-03T18:17:31.221Z,11.55
2023-02-03T18:20:00.418Z,10.60
2023-02-03T18:22:28.057Z,11.42
2023-02-03T18:24:55.884Z,10.86
2023-02-03T18:27:23.451Z,9.95
2023-02-03T18:29:51.112Z,10.62
2023-02-03T18:32:19.855Z,10.74
2023-02-03T18:34:48.940Z,11.63
2023-02-03T18:37:16.736Z,10.70
2023-02-03T18:39:44.484Z,9.89
2023-02-03T18:42:12.055Z,10.98
2023-02-03T18:44:41.207Z,10.41
2023-02-03T18:47:08.840Z,10.30
2023-02-03T18:49:36.818Z,10.55
2023-02-03T18:52:06.083Z,12.12
2023-02-03T18:54:33.711Z,11.00
2023-02-03T18:57:02.805Z,9.86
2023-02-03T18:59:30.508Z,10.01
2023-02-03T19:01:58.187Z,9.84
2023-02-03T19:04:25.799Z,10.71
2023-02-03T19:06:53.382Z,10.52
2023-02-03T19:09:23.622Z,11.33
2023-02-03T19:11:51.303Z,10.51
2023-02-03T19:14:20.024Z,10.41
2023-02-03T19:16:50.326Z,12.14
2023-02-03T19:19:17.984Z,11.13
2023-02-03T19:21:45.626Z,11.17
2023-02-03T19:24:13.681Z,10.77
2023-02-03T19:26:42.659Z,11.43
2023-02-03T19:29:10.232Z,11.22
2023-02-03T19:31:37.946Z,9.85
2023-02-03T19:34:05.880Z,10.51
2023-02-03T19:36:33.487Z,11.94
2023-02-03T19:39:01.141Z,11.11
2023-02-03T19:41:30.793Z,10.58
2023-02-03T19:43:59.787Z,10.53
2023-02-03T19:46:31.749Z,10.73
2023-02-03T19:48:59.364Z,10.84
2023-02-03T19:51:27.069Z,10.38
2023-02-03T19:53:54.742Z,11.39
2023-02-03T19:56:22.455Z,8.69
2023-02-03T19:58:52.072Z,9.61
2023-02-03T20:01:21.202Z,9.14
2023-02-03T20:03:48.838Z,10.07
2023-02-03T20:06:16.616Z,11.23
2023-02-03T20:08:44.326Z,9.74
2023-02-03T20:11:12.029Z,9.53
2023-02-03T20:13:40.578Z,10.01
2023-02-03T20:16:08.276Z,9.63
2023-02-03T20:18:37.291Z,9.91
2023-02-03T20:21:05.582Z,9.72
2023-02-03T20:23:33.285Z,10.69
2023-02-03T20:26:00.924Z,10.47
2023-02-03T20:28:28.659Z,11.56
2023-02-03T20:30:57.384Z,9.96
2023-02-03T20:33:27.671Z,10.35
2023-02-03T20:35:56.887Z,9.82
2023-02-03T20:38:24.664Z,10.42
2023-02-03T20:40:52.327Z,9.94
2023-02-03T20:43:20.953Z,9.80
2023-02-03T20:45:49.523Z,9.54
2023-02-03T20:48:17.507Z,10.04
2023-02-03T20:50:47.241Z,11.36
2023-02-03T20:53:17.299Z,8.91
2023-02-03T20:55:44.975Z,9.53
2023-02-03T20:58:16.873Z,10.46
2023-02-03T21:00:44.737Z,9.99
2023-02-03T21:03:30.315Z,9.01
2023-02-03T21:05:57.945Z,10.09
2023-02-03T21:08:27.621Z,10.03
2023-02-03T21:10:55.374Z,9.97
2023-02-03T21:13:23.541Z,10.15
2023-02-03T21:15:51.707Z,10.55
2023-02-03T21:18:22.524Z,9.13
2023-02-03T21:20:50.188Z,9.10
2023-02-03T21:23:17.904Z,10.34
2023-02-03T21:25:46.974Z,10.72
2023-02-03T21:28:19.960Z,10.45
2023-02-03T21:30:47.673Z,9.85
2023-02-03T21:33:22.576Z,8.79
2023-02-03T21:35:50.264Z,8.40
2023-02-03T21:38:25.522Z,7.88
2023-02-03T21:40:54.543Z,7.39
2023-02-03T21:43:22.123Z,7.94
2023-02-03T21:45:49.834Z,9.45
2023-02-03T21:48:24.064Z,7.18
2023-02-03T21:50:51.769Z,7.96
2023-02-03T21:53:24.440Z,8.35
2023-02-03T21:55:52.126Z,8.16
2023-02-03T21:58:22.386Z,7.71
2023-02-03T22:00:50.448Z,8.67
2023-02-03T22:03:20.216Z,7.49
2023-02-03T22:05:47.955Z,6.94
2023-02-03T22:08:18.298Z,7.73
2023-02-03T22:10:45.968Z,7.75
2023-02-03T22:13:13.676Z,6.83
2023-02-03T22:15:42.766Z,7.74
2023-02-03T22:18:10.392Z,8.34
2023-02-03T22:20:38.032Z,8.05
2023-02-03T22:23:05.989Z,8.52
2023-02-03T22:25:33.586Z,8.37
2023-02-03T22:28:01.325Z,8.73
2023-02-03T22:30:29.385Z,9.28
2023-02-03T22:32:59.362Z,9.49
2023-02-03T22:35:27.095Z,7.98
2023-02-03T22:37:57.762Z,8.23
2023-02-03T22:40:25.697Z,8.74
2023-02-03T22:42:53.416Z,7.43
2023-02-03T22:45:21.528Z,5.84
2023-02-03T22:47:49.183Z,6.80
2023-02-03T22:50:24.641Z,6.38
2023-02-03T22:53:00.177Z,6.46
2023-02-03T22:55:27.817Z,7.69
2023-02-03T22:57:56.396Z,8.17
2023-02-03T23:00:24.924Z,7.69
2023-02-03T23:02:52.541Z,7.60
2023-02-03T23:05:20.380Z,7.99
2023-02-03T23:07:48.166Z,7.55
2023-02-03T23:10:18.734Z,8.26
2023-02-03T23:12:46.525Z,7.86
2023-02-03T23:15:14.223Z,9.19
2023-02-03T23:17:41.842Z,9.74
2023-02-03T23:20:10.339Z,10.65
2023-02-03T23:22:38.010Z,9.04
2023-02-03T23:25:05.812Z,9.64
2023-02-03T23:27:34.806Z,7.56
2023-02-03T23:30:02.418Z,8.85
2023-02-03T23:32:30.102Z,8.02
2023-02-03T23:35:15.306Z,8.15
2023-02-03T23:37:42.881Z,8.05
2023-02-03T23:40:11.262Z,6.81
2023-02-03T23:42:40.337Z,8.13
2023-02-03T23:45:12.144Z,7.09
2023-02-03T23:47:40.338Z,7.10
2023-02-03T23:50:08.440Z,9.87
2023-02-03T23:52:36.681Z,9.67
2023-02-03T23:55:05.300Z,9.70
2023-02-03T23:57:32.963Z,9.72
